sensor_id;sensor_type;location;lat;lon;timestamp;P1;durP1;ratioP1;P2;durP2;ratioP2
11344;SDS011;5727;42.600;23.028;2023-02-26T00:01:50;13.60;;;6.17;;
11344;SDS011;5727;42.600;23.028;2023-02-26T00:04:20;9.47;;;5.60;;
11344;SDS011;5727;42.600;23.028;2023-02-26T00:06:48;13.30;;;5.57;;
11344;SDS011;5727;42.600;23.028;2023-02-26T00:09:17;8.40;;;5.30;;
11344;SDS011;5727;42.600;23.028;2023-02-26T00:11:44;9.40;;;5.23;;
11344;SDS011;5727;42.600;23.028;2023-02-26T00:14:12;13.97;;;6.00;;
11344;SDS011;5727;42.600;23.028;2023-02-26T00:16:41;10.00;;;5.27;;
11344;SDS011;5727;42.600;23.028;2023-02-26T00:19:12;15.60;;;5.70;;
11344;SDS011;5727;42.600;23.028;2023-02-26T00:21:40;11.60;;;5.93;;
11344;SDS011;5727;42.600;23.028;2023-02-26T00:24:08;8.13;;;5.13;;
11344;SDS011;5727;42.600;23.028;2023-02-26T00:26:35;12.87;;;6.10;;
11344;SDS011;5727;42.600;23.028;2023-02-26T00:29:02;10.23;;;5.47;;
11344;SDS011;5727;42.600;23.028;2023-02-26T00:31:30;10.30;;;5.97;;
11344;SDS011;5727;42.600;23.028;2023-02-26T00:33:57;10.17;;;5.73;;
11344;SDS011;5727;42.600;23.028;2023-02-26T00:36:27;10.47;;;6.13;;
11344;SDS011;5727;42.600;23.028;2023-02-26T00:39:01;12.30;;;6.20;;
11344;SDS011;5727;42.600;23.028;2023-02-26T00:41:34;9.13;;;5.67;;
11344;SDS011;5727;42.600;23.028;2023-02-26T00:44:03;10.07;;;5.37;;
11344;SDS011;5727;42.600;23.028;2023-02-26T00:46:34;9.73;;;5.50;;
11344;SDS011;5727;42.600;23.028;2023-02-26T00:49:10;11.13;;;5.73;;
11344;SDS011;5727;42.600;23.028;2023-02-26T00:51:44;11.07;;;5.90;;
11344;SDS011;5727;42.600;23.028;2023-02-26T00:54:15;10.83;;;5.53;;
11344;SDS011;5727;42.600;23.028;2023-02-26T00:56:46;11.77;;;6.30;;
11344;SDS011;5727;42.600;23.028;2023-02-26T00:59:13;8.93;;;6.40;;
11344;SDS011;5727;42.600;23.028;2023-02-26T01:01:40;13.33;;;5.43;;
11344;SDS011;5727;42.600;23.028;2023-02-26T01:04:07;9.00;;;5.50;;
11344;SDS011;5727;42.600;23.028;2023-02-26T01:06:36;12.37;;;5.50;;
11344;SDS011;5727;42.600;23.028;2023-02-26T01:09:09;10.30;;;5.70;;
11344;SDS011;5727;42.600;23.028;2023-02-26T01:11:42;11.77;;;5.67;;
11344;SDS011;5727;42.600;23.028;2023-02-26T01:14:11;9.97;;;5.13;;
11344;SDS011;5727;42.600;23.028;2023-02-26T01:16:41;10.73;;;5.43;;
11344;SDS011;5727;42.600;23.028;2023-02-26T01:19:17;11.67;;;5.07;;
11344;SDS011;5727;42.600;23.028;2023-02-26T01:21:50;9.57;;;5.57;;
11344;SDS011;5727;42.600;23.028;2023-02-26T01:24:25;9.43;;;5.97;;
11344;SDS011;5727;42.600;23.028;2023-02-26T01:26:56;13.33;;;5.77;;
11344;SDS011;5727;42.600;23.028;2023-02-26T01:29:24;9.67;;;4.90;;
11344;SDS011;5727;42.600;23.028;2023-02-26T01:31:53;10.80;;;5.60;;
11344;SDS011;5727;42.600;23.028;2023-02-26T01:34:25;12.30;;;5.30;;
11344;SDS011;5727;42.600;23.028;2023-02-26T01:37:01;11.83;;;6.00;;
11344;SDS011;5727;42.600;23.028;2023-02-26T01:39:38;9.27;;;4.90;;
11344;SDS011;5727;42.600;23.028;2023-02-26T01:42:12;10.37;;;5.23;;
11344;SDS011;5727;42.600;23.028;2023-02-26T01:44:48;7.57;;;4.93;;
11344;SDS011;5727;42.600;23.028;2023-02-26T01:47:22;8.83;;;4.90;;
11344;SDS011;5727;42.600;23.028;2023-02-26T01:49:54;10.13;;;5.20;;
11344;SDS011;5727;42.600;23.028;2023-02-26T01:55:29;9.70;;;4.83;;
11344;SDS011;5727;42.600;23.028;2023-02-26T01:57:56;10.00;;;4.83;;
11344;SDS011;5727;42.600;23.028;2023-02-26T02:00:27;11.00;;;4.70;;
11344;SDS011;5727;42.600;23.028;2023-02-26T02:02:55;7.93;;;4.63;;
11344;SDS011;5727;42.600;23.028;2023-02-26T02:05:23;8.03;;;4.60;;
11344;SDS011;5727;42.600;23.028;2023-02-26T02:07:54;9.53;;;4.80;;
11344;SDS011;5727;42.600;23.028;2023-02-26T02:10:21;9.80;;;5.07;;
11344;SDS011;5727;42.600;23.028;2023-02-26T02:12:50;14.37;;;4.47;;
11344;SDS011;5727;42.600;23.028;2023-02-26T02:15:27;7.83;;;4.47;;
11344;SDS011;5727;42.600;23.028;2023-02-26T02:18:03;9.53;;;4.37;;
11344;SDS011;5727;42.600;23.028;2023-02-26T02:23:42;10.73;;;4.20;;
11344;SDS011;5727;42.600;23.028;2023-02-26T02:26:25;6.97;;;4.13;;
11344;SDS011;5727;42.600;23.028;2023-02-26T02:29:09;10.87;;;5.17;;
11344;SDS011;5727;42.600;23.028;2023-02-26T02:31:55;10.07;;;4.97;;
11344;SDS011;5727;42.600;23.028;2023-02-26T02:34:26;8.73;;;4.67;;
11344;SDS011;5727;42.600;23.028;2023-02-26T02:37:00;13.27;;;4.97;;
11344;SDS011;5727;42.600;23.028;2023-02-26T02:39:31;11.87;;;4.53;;
11344;SDS011;5727;42.600;23.028;2023-02-26T02:42:02;12.93;;;4.83;;
11344;SDS011;5727;42.600;23.028;2023-02-26T02:44:34;9.67;;;4.30;;
11344;SDS011;5727;42.600;23.028;2023-02-26T02:49:58;8.57;;;4.10;;
11344;SDS011;5727;42.600;23.028;2023-02-26T02:52:31;11.40;;;4.17;;
11344;SDS011;5727;42.600;23.028;2023-02-26T02:55:02;8.40;;;3.93;;
11344;SDS011;5727;42.600;23.028;2023-02-26T02:57:34;7.90;;;3.80;;
11344;SDS011;5727;42.600;23.028;2023-02-26T03:00:06;8.77;;;3.87;;
11344;SDS011;5727;42.600;23.028;2023-02-26T03:02:38;13.10;;;4.80;;
11344;SDS011;5727;42.600;23.028;2023-02-26T03:05:08;12.13;;;4.47;;
11344;SDS011;5727;42.600;23.028;2023-02-26T03:07:49;8.33;;;4.33;;
11344;SDS011;5727;42.600;23.028;2023-02-26T03:10:19;8.03;;;3.50;;
11344;SDS011;5727;42.600;23.028;2023-02-26T03:12:46;11.13;;;3.67;;
11344;SDS011;5727;42.600;23.028;2023-02-26T03:15:13;6.17;;;4.03;;
11344;SDS011;5727;42.600;23.028;2023-02-26T03:17:48;8.93;;;4.23;;
11344;SDS011;5727;42.600;23.028;2023-02-26T03:20:21;10.53;;;4.23;;
11344;SDS011;5727;42.600;23.028;2023-02-26T03:23:01;15.77;;;4.43;;
11344;SDS011;5727;42.600;23.028;2023-02-26T03:25:37;8.67;;;3.70;;
11344;SDS011;5727;42.600;23.028;2023-02-26T03:28:12;13.97;;;3.93;;
11344;SDS011;5727;42.600;23.028;2023-02-26T03:30:44;10.87;;;4.00;;
11344;SDS011;5727;42.600;23.028;2023-02-26T03:33:19;11.20;;;3.73;;
11344;SDS011;5727;42.600;23.028;2023-02-26T03:35:50;9.73;;;3.53;;
11344;SDS011;5727;42.600;23.028;2023-02-26T03:38:24;9.47;;;3.77;;
11344;SDS011;5727;42.600;23.028;2023-02-26T03:40:57;12.37;;;4.20;;
11344;SDS011;5727;42.600;23.028;2023-02-26T03:43:32;9.37;;;3.93;;
11344;SDS011;5727;42.600;23.028;2023-02-26T03:46:04;8.90;;;3.33;;
11344;SDS011;5727;42.600;23.028;2023-02-26T03:48:35;9.30;;;3.67;;
11344;SDS011;5727;42.600;23.028;2023-02-26T03:51:03;10.40;;;3.87;;
11344;SDS011;5727;42.600;23.028;2023-02-26T03:53:33;8.97;;;4.10;;
11344;SDS011;5727;42.600;23.028;2023-02-26T03:56:11;8.23;;;4.60;;
11344;SDS011;5727;42.600;23.028;2023-02-26T03:58:41;11.43;;;4.03;;
11344;SDS011;5727;42.600;23.028;2023-02-26T04:01:09;8.67;;;3.77;;
11344;SDS011;5727;42.600;23.028;2023-02-26T04:03:44;14.63;;;4.57;;
11344;SDS011;5727;42.600;23.028;2023-02-26T04:06:15;11.03;;;4.07;;
11344;SDS011;5727;42.600;23.028;2023-02-26T04:08:44;7.87;;;3.90;;
11344;SDS011;5727;42.600;23.028;2023-02-26T04:11:12;7.10;;;4.03;;
11344;SDS011;5727;42.600;23.028;2023-02-26T04:13:42;14.80;;;4.50;;
11344;SDS011;5727;42.600;23.028;2023-02-26T04:16:09;6.30;;;3.90;;
11344;SDS011;5727;42.600;23.028;2023-02-26T04:18:35;12.80;;;3.83;;
11344;SDS011;5727;42.600;23.028;2023-02-26T04:21:04;10.97;;;4.33;;
11344;SDS011;5727;42.600;23.028;2023-02-26T04:23:31;9.27;;;4.27;;
11344;SDS011;5727;42.600;23.028;2023-02-26T04:25:58;12.83;;;4.63;;
11344;SDS011;5727;42.600;23.028;2023-02-26T04:28:25;6.87;;;4.13;;
11344;SDS011;5727;42.600;23.028;2023-02-26T04:30:51;9.77;;;3.80;;
11344;SDS011;5727;42.600;23.028;2023-02-26T04:33:18;8.37;;;3.83;;
11344;SDS011;5727;42.600;23.028;2023-02-26T04:35:45;9.57;;;4.07;;
11344;SDS011;5727;42.600;23.028;2023-02-26T04:38:13;10.40;;;4.20;;
11344;SDS011;5727;42.600;23.028;2023-02-26T04:40:40;7.90;;;4.07;;
11344;SDS011;5727;42.600;23.028;2023-02-26T04:43:06;8.27;;;4.03;;
11344;SDS011;5727;42.600;23.028;2023-02-26T04:45:33;14.70;;;4.03;;
11344;SDS011;5727;42.600;23.028;2023-02-26T04:48:00;6.50;;;3.70;;
11344;SDS011;5727;42.600;23.028;2023-02-26T04:50:26;9.60;;;4.30;;
11344;SDS011;5727;42.600;23.028;2023-02-26T04:52:53;7.53;;;3.70;;
11344;SDS011;5727;42.600;23.028;2023-02-26T04:55:21;8.97;;;3.67;;
11344;SDS011;5727;42.600;23.028;2023-02-26T04:57:48;9.47;;;4.27;;
11344;SDS011;5727;42.600;23.028;2023-02-26T05:00:15;11.70;;;3.73;;
11344;SDS011;5727;42.600;23.028;2023-02-26T05:02:43;15.07;;;4.30;;
11344;SDS011;5727;42.600;23.028;2023-02-26T05:05:10;9.93;;;4.00;;
11344;SDS011;5727;42.600;23.028;2023-02-26T05:07:37;9.20;;;4.07;;
11344;SDS011;5727;42.600;23.028;2023-02-26T05:10:04;9.00;;;4.07;;
11344;SDS011;5727;42.600;23.028;2023-02-26T05:12:33;7.30;;;4.00;;
11344;SDS011;5727;42.600;23.028;2023-02-26T05:15:00;12.23;;;4.10;;
11344;SDS011;5727;42.600;23.028;2023-02-26T05:17:26;10.77;;;4.40;;
11344;SDS011;5727;42.600;23.028;2023-02-26T05:19:53;8.83;;;4.33;;
11344;SDS011;5727;42.600;23.028;2023-02-26T05:22:20;13.60;;;4.50;;
11344;SDS011;5727;42.600;23.028;2023-02-26T05:24:47;10.33;;;4.50;;
11344;SDS011;5727;42.600;23.028;2023-02-26T05:27:14;10.83;;;4.00;;
11344;SDS011;5727;42.600;23.028;2023-02-26T05:29:42;11.10;;;4.37;;
11344;SDS011;5727;42.600;23.028;2023-02-26T05:32:09;13.70;;;5.37;;
11344;SDS011;5727;42.600;23.028;2023-02-26T05:34:36;11.37;;;4.23;;
11344;SDS011;5727;42.600;23.028;2023-02-26T05:37:02;12.03;;;4.80;;
11344;SDS011;5727;42.600;23.028;2023-02-26T05:39:29;13.40;;;5.03;;
11344;SDS011;5727;42.600;23.028;2023-02-26T05:41:56;8.30;;;4.47;;
11344;SDS011;5727;42.600;23.028;2023-02-26T05:44:23;7.87;;;4.50;;
11344;SDS011;5727;42.600;23.028;2023-02-26T05:46:51;12.20;;;4.40;;
11344;SDS011;5727;42.600;23.028;2023-02-26T05:49:18;12.57;;;4.47;;
11344;SDS011;5727;42.600;23.028;2023-02-26T05:51:45;10.80;;;4.17;;
11344;SDS011;5727;42.600;23.028;2023-02-26T05:54:11;13.00;;;3.97;;
11344;SDS011;5727;42.600;23.028;2023-02-26T05:56:38;11.23;;;4.20;;
11344;SDS011;5727;42.600;23.028;2023-02-26T05:59:05;10.03;;;4.30;;
11344;SDS011;5727;42.600;23.028;2023-02-26T06:01:31;12.80;;;4.60;;
11344;SDS011;5727;42.600;23.028;2023-02-26T06:03:59;12.10;;;3.90;;
11344;SDS011;5727;42.600;23.028;2023-02-26T06:06:26;12.33;;;4.50;;
11344;SDS011;5727;42.600;23.028;2023-02-26T06:08:53;13.20;;;4.13;;
11344;SDS011;5727;42.600;23.028;2023-02-26T06:11:20;14.30;;;4.53;;
11344;SDS011;5727;42.600;23.028;2023-02-26T06:13:46;13.07;;;4.30;;
11344;SDS011;5727;42.600;23.028;2023-02-26T06:16:13;12.40;;;4.33;;
11344;SDS011;5727;42.600;23.028;2023-02-26T06:18:40;10.23;;;4.03;;
11344;SDS011;5727;42.600;23.028;2023-02-26T06:21:08;10.37;;;4.70;;
11344;SDS011;5727;42.600;23.028;2023-02-26T06:23:35;10.87;;;4.87;;
11344;SDS011;5727;42.600;23.028;2023-02-26T06:26:01;8.03;;;4.50;;
11344;SDS011;5727;42.600;23.028;2023-02-26T06:28:28;17.03;;;4.13;;
11344;SDS011;5727;42.600;23.028;2023-02-26T06:30:55;11.13;;;4.00;;
11344;SDS011;5727;42.600;23.028;2023-02-26T06:33:22;13.43;;;5.37;;
11344;SDS011;5727;42.600;23.028;2023-02-26T06:35:49;12.47;;;3.73;;
11344;SDS011;5727;42.600;23.028;2023-02-26T06:38:17;11.83;;;4.63;;
11344;SDS011;5727;42.600;23.028;2023-02-26T06:40:45;13.83;;;4.83;;
11344;SDS011;5727;42.600;23.028;2023-02-26T06:43:12;12.87;;;4.50;;
11344;SDS011;5727;42.600;23.028;2023-02-26T06:45:39;12.47;;;4.10;;
11344;SDS011;5727;42.600;23.028;2023-02-26T06:48:06;14.30;;;4.13;;
11344;SDS011;5727;42.600;23.028;2023-02-26T06:50:33;8.67;;;3.83;;
11344;SDS011;5727;42.600;23.028;2023-02-26T06:52:59;16.27;;;4.50;;
11344;SDS011;5727;42.600;23.028;2023-02-26T06:55:27;9.33;;;3.43;;
11344;SDS011;5727;42.600;23.028;2023-02-26T06:57:55;14.30;;;4.43;;
11344;SDS011;5727;42.600;23.028;2023-02-26T07:00:23;7.13;;;3.77;;
11344;SDS011;5727;42.600;23.028;2023-02-26T07:02:51;10.60;;;3.90;;
11344;SDS011;5727;42.600;23.028;2023-02-26T07:05:18;8.30;;;3.70;;
11344;SDS011;5727;42.600;23.028;2023-02-26T07:07:45;10.97;;;3.90;;
11344;SDS011;5727;42.600;23.028;2023-02-26T07:10:12;16.00;;;4.50;;
11344;SDS011;5727;42.600;23.028;2023-02-26T07:12:40;12.70;;;4.50;;
11344;SDS011;5727;42.600;23.028;2023-02-26T07:15:07;11.07;;;3.80;;
11344;SDS011;5727;42.600;23.028;2023-02-26T07:17:34;15.30;;;4.27;;
11344;SDS011;5727;42.600;23.028;2023-02-26T07:20:01;14.23;;;4.53;;
11344;SDS011;5727;42.600;23.028;2023-02-26T07:22:34;11.47;;;3.93;;
11344;SDS011;5727;42.600;23.028;2023-02-26T07:25:01;17.17;;;5.00;;
11344;SDS011;5727;42.600;23.028;2023-02-26T07:27:28;13.70;;;3.93;;
11344;SDS011;5727;42.600;23.028;2023-02-26T07:29:56;11.10;;;4.17;;
11344;SDS011;5727;42.600;23.028;2023-02-26T07:32:23;12.53;;;4.07;;
11344;SDS011;5727;42.600;23.028;2023-02-26T07:34:50;13.83;;;4.57;;
11344;SDS011;5727;42.600;23.028;2023-02-26T07:37:16;16.83;;;5.60;;
11344;SDS011;5727;42.600;23.028;2023-02-26T07:39:43;11.57;;;5.40;;
11344;SDS011;5727;42.600;23.028;2023-02-26T07:42:10;17.17;;;4.60;;
11344;SDS011;5727;42.600;23.028;2023-02-26T07:44:37;11.63;;;3.87;;
11344;SDS011;5727;42.600;23.028;2023-02-26T07:47:06;17.27;;;4.30;;
11344;SDS011;5727;42.600;23.028;2023-02-26T07:49:33;11.57;;;4.57;;
11344;SDS011;5727;42.600;23.028;2023-02-26T07:52:00;13.53;;;4.13;;
11344;SDS011;5727;42.600;23.028;2023-02-26T07:54:27;12.03;;;4.63;;
11344;SDS011;5727;42.600;23.028;2023-02-26T07:56:54;12.57;;;4.07;;
11344;SDS011;5727;42.600;23.028;2023-02-26T07:59:21;17.37;;;4.63;;
11344;SDS011;5727;42.600;23.028;2023-02-26T08:01:47;19.90;;;4.27;;
11344;SDS011;5727;42.600;23.028;2023-02-26T08:04:18;14.10;;;4.33;;
11344;SDS011;5727;42.600;23.028;2023-02-26T08:06:45;19.07;;;4.73;;
11344;SDS011;5727;42.600;23.028;2023-02-26T08:09:11;19.40;;;4.67;;
11344;SDS011;5727;42.600;23.028;2023-02-26T08:11:38;15.87;;;4.17;;
11344;SDS011;5727;42.600;23.028;2023-02-26T08:14:07;13.30;;;4.13;;
11344;SDS011;5727;42.600;23.028;2023-02-26T08:16:34;19.90;;;5.23;;
11344;SDS011;5727;42.600;23.028;2023-02-26T08:19:01;17.33;;;4.20;;
11344;SDS011;5727;42.600;23.028;2023-02-26T08:21:29;21.93;;;4.00;;
11344;SDS011;5727;42.600;23.028;2023-02-26T08:23:56;16.20;;;4.13;;
11344;SDS011;5727;42.600;23.028;2023-02-26T08:26:23;12.57;;;4.23;;
11344;SDS011;5727;42.600;23.028;2023-02-26T08:28:49;16.77;;;4.73;;
11344;SDS011;5727;42.600;23.028;2023-02-26T08:31:16;11.63;;;4.23;;
11344;SDS011;5727;42.600;23.028;2023-02-26T08:33:43;16.93;;;5.20;;
11344;SDS011;5727;42.600;23.028;2023-02-26T08:36:10;13.53;;;4.13;;
11344;SDS011;5727;42.600;23.028;2023-02-26T08:38:40;13.83;;;4.00;;
11344;SDS011;5727;42.600;23.028;2023-02-26T08:41:06;15.07;;;4.83;;
11344;SDS011;5727;42.600;23.028;2023-02-26T08:43:33;12.97;;;4.13;;
11344;SDS011;5727;42.600;23.028;2023-02-26T08:46:00;9.83;;;4.27;;
11344;SDS011;5727;42.600;23.028;2023-02-26T08:48:27;14.27;;;4.57;;
11344;SDS011;5727;42.600;23.028;2023-02-26T08:50:54;15.43;;;3.87;;
11344;SDS011;5727;42.600;23.028;2023-02-26T08:53:21;11.63;;;4.37;;
11344;SDS011;5727;42.600;23.028;2023-02-26T08:55:49;15.27;;;4.50;;
11344;SDS011;5727;42.600;23.028;2023-02-26T08:58:17;19.67;;;4.30;;
11344;SDS011;5727;42.600;23.028;2023-02-26T09:00:45;22.77;;;4.90;;
11344;SDS011;5727;42.600;23.028;2023-02-26T09:03:12;14.07;;;4.40;;
11344;SDS011;5727;42.600;23.028;2023-02-26T09:05:38;13.93;;;3.90;;
11344;SDS011;5727;42.600;23.028;2023-02-26T09:08:06;9.50;;;4.03;;
11344;SDS011;5727;42.600;23.028;2023-02-26T09:10:33;14.83;;;5.10;;
11344;SDS011;5727;42.600;23.028;2023-02-26T09:13:01;12.83;;;3.80;;
11344;SDS011;5727;42.600;23.028;2023-02-26T09:15:28;10.60;;;3.97;;
11344;SDS011;5727;42.600;23.028;2023-02-26T09:17:54;29.67;;;5.10;;
11344;SDS011;5727;42.600;23.028;2023-02-26T09:20:22;18.00;;;4.40;;
11344;SDS011;5727;42.600;23.028;2023-02-26T09:22:49;9.93;;;4.30;;
11344;SDS011;5727;42.600;23.028;2023-02-26T09:25:15;13.13;;;4.10;;
11344;SDS011;5727;42.600;23.028;2023-02-26T09:27:42;17.07;;;4.37;;
11344;SDS011;5727;42.600;23.028;2023-02-26T09:30:11;21.57;;;4.27;;
11344;SDS011;5727;42.600;23.028;2023-02-26T09:32:38;15.37;;;4.77;;
11344;SDS011;5727;42.600;23.028;2023-02-26T09:35:05;18.53;;;4.07;;
11344;SDS011;5727;42.600;23.028;2023-02-26T09:37:32;10.30;;;3.90;;
11344;SDS011;5727;42.600;23.028;2023-02-26T09:39:59;20.50;;;4.30;;
11344;SDS011;5727;42.600;23.028;2023-02-26T09:42:44;21.67;;;5.23;;
11344;SDS011;5727;42.600;23.028;2023-02-26T09:45:26;13.10;;;3.67;;
11344;SDS011;5727;42.600;23.028;2023-02-26T09:47:56;11.80;;;4.07;;
11344;SDS011;5727;42.600;23.028;2023-02-26T09:50:37;18.90;;;4.53;;
11344;SDS011;5727;42.600;23.028;2023-02-26T09:53:10;16.77;;;4.57;;
11344;SDS011;5727;42.600;23.028;2023-02-26T09:55:42;22.90;;;4.53;;
11344;SDS011;5727;42.600;23.028;2023-02-26T09:58:12;9.20;;;3.37;;
11344;SDS011;5727;42.600;23.028;2023-02-26T10:00:46;12.57;;;4.00;;
11344;SDS011;5727;42.600;23.028;2023-02-26T10:03:20;15.40;;;3.97;;
11344;SDS011;5727;42.600;23.028;2023-02-26T10:05:58;13.47;;;3.87;;
11344;SDS011;5727;42.600;23.028;2023-02-26T10:08:36;18.17;;;3.77;;
11344;SDS011;5727;42.600;23.028;2023-02-26T10:11:12;15.47;;;4.70;;
11344;SDS011;5727;42.600;23.028;2023-02-26T10:13:49;16.47;;;3.87;;
11344;SDS011;5727;42.600;23.028;2023-02-26T10:16:22;11.03;;;3.90;;
11344;SDS011;5727;42.600;23.028;2023-02-26T10:18:53;11.90;;;4.17;;
11344;SDS011;5727;42.600;23.028;2023-02-26T10:21:26;14.40;;;3.93;;
11344;SDS011;5727;42.600;23.028;2023-02-26T10:23:59;12.60;;;4.13;;
11344;SDS011;5727;42.600;23.028;2023-02-26T10:26:34;14.10;;;3.83;;
11344;SDS011;5727;42.600;23.028;2023-02-26T10:29:06;15.50;;;4.43;;
11344;SDS011;5727;42.600;23.028;2023-02-26T10:31:48;20.87;;;4.87;;
11344;SDS011;5727;42.600;23.028;2023-02-26T10:34:24;14.23;;;4.23;;
11344;SDS011;5727;42.600;23.028;2023-02-26T10:36:57;18.57;;;4.10;;
11344;SDS011;5727;42.600;23.028;2023-02-26T10:39:34;12.60;;;3.93;;
11344;SDS011;5727;42.600;23.028;2023-02-26T10:42:06;19.20;;;4.77;;
11344;SDS011;5727;42.600;23.028;2023-02-26T10:44:40;10.33;;;3.60;;
11344;SDS011;5727;42.600;23.028;2023-02-26T10:47:16;29.17;;;4.73;;
11344;SDS011;5727;42.600;23.028;2023-02-26T10:49:51;15.43;;;3.70;;
11344;SDS011;5727;42.600;23.028;2023-02-26T10:52:22;17.23;;;4.40;;
11344;SDS011;5727;42.600;23.028;2023-02-26T10:54:55;12.50;;;3.70;;
11344;SDS011;5727;42.600;23.028;2023-02-26T10:57:47;14.83;;;3.90;;
11344;SDS011;5727;42.600;23.028;2023-02-26T11:00:19;9.33;;;4.53;;
11344;SDS011;5727;42.600;23.028;2023-02-26T11:02:49;13.47;;;3.97;;
11344;SDS011;5727;42.600;23.028;2023-02-26T11:05:19;14.53;;;4.00;;
11344;SDS011;5727;42.600;23.028;2023-02-26T11:07:50;17.47;;;5.10;;
11344;SDS011;5727;42.600;23.028;2023-02-26T11:10:21;13.23;;;4.07;;
11344;SDS011;5727;42.600;23.028;2023-02-26T11:12:50;15.60;;;3.77;;
11344;SDS011;5727;42.600;23.028;2023-02-26T11:15:17;14.53;;;4.53;;
11344;SDS011;5727;42.600;23.028;2023-02-26T11:17:46;18.97;;;3.97;;
11344;SDS011;5727;42.600;23.028;2023-02-26T11:20:18;10.30;;;3.50;;
11344;SDS011;5727;42.600;23.028;2023-02-26T11:22:52;11.97;;;3.60;;
11344;SDS011;5727;42.600;23.028;2023-02-26T11:25:22;14.03;;;3.80;;
11344;SDS011;5727;42.600;23.028;2023-02-26T11:27:56;15.00;;;4.87;;
11344;SDS011;5727;42.600;23.028;2023-02-26T11:30:26;14.77;;;4.50;;
11344;SDS011;5727;42.600;23.028;2023-02-26T11:32:56;13.57;;;4.33;;
11344;SDS011;5727;42.600;23.028;2023-02-26T11:35:30;15.30;;;4.77;;
11344;SDS011;5727;42.600;23.028;2023-02-26T11:37:58;17.97;;;4.77;;
11344;SDS011;5727;42.600;23.028;2023-02-26T11:40:31;10.90;;;4.10;;
11344;SDS011;5727;42.600;23.028;2023-02-26T11:43:03;16.30;;;5.27;;
11344;SDS011;5727;42.600;23.028;2023-02-26T11:45:33;14.27;;;4.30;;
11344;SDS011;5727;42.600;23.028;2023-02-26T11:48:03;16.60;;;5.30;;
11344;SDS011;5727;42.600;23.028;2023-02-26T11:50:37;14.57;;;4.50;;
11344;SDS011;5727;42.600;23.028;2023-02-26T11:53:14;10.17;;;3.60;;
11344;SDS011;5727;42.600;23.028;2023-02-26T11:55:43;11.90;;;3.27;;
11344;SDS011;5727;42.600;23.028;2023-02-26T11:58:16;12.10;;;3.83;;
11344;SDS011;5727;42.600;23.028;2023-02-26T12:00:44;14.07;;;5.10;;
11344;SDS011;5727;42.600;23.028;2023-02-26T12:03:14;10.60;;;4.33;;
11344;SDS011;5727;42.600;23.028;2023-02-26T12:05:45;30.10;;;4.23;;
11344;SDS011;5727;42.600;23.028;2023-02-26T12:08:15;16.07;;;4.63;;
11344;SDS011;5727;42.600;23.028;2023-02-26T12:10:48;11.90;;;4.53;;
11344;SDS011;5727;42.600;23.028;2023-02-26T12:13:23;16.53;;;4.57;;
11344;SDS011;5727;42.600;23.028;2023-02-26T12:15:57;6.77;;;3.43;;
11344;SDS011;5727;42.600;23.028;2023-02-26T12:18:32;15.17;;;3.47;;
11344;SDS011;5727;42.600;23.028;2023-02-26T12:27:19;17.63;;;4.10;;
11344;SDS011;5727;42.600;23.028;2023-02-26T12:29:59;11.20;;;4.40;;
11344;SDS011;5727;42.600;23.028;2023-02-26T12:32:42;11.27;;;4.17;;
11344;SDS011;5727;42.600;23.028;2023-02-26T12:35:29;14.73;;;4.13;;
11344;SDS011;5727;42.600;23.028;2023-02-26T12:38:19;9.00;;;3.70;;
11344;SDS011;5727;42.600;23.028;2023-02-26T12:41:06;15.10;;;4.30;;
11344;SDS011;5727;42.600;23.028;2023-02-26T12:43:44;10.87;;;3.27;;
11344;SDS011;5727;42.600;23.028;2023-02-26T12:46:18;14.97;;;4.17;;
11344;SDS011;5727;42.600;23.028;2023-02-26T12:49:06;20.53;;;4.60;;
11344;SDS011;5727;42.600;23.028;2023-02-26T12:51:52;16.30;;;4.40;;
11344;SDS011;5727;42.600;23.028;2023-02-26T12:54:36;13.97;;;3.90;;
11344;SDS011;5727;42.600;23.028;2023-02-26T12:57:23;13.87;;;4.20;;
11344;SDS011;5727;42.600;23.028;2023-02-26T13:00:12;16.10;;;4.30;;
11344;SDS011;5727;42.600;23.028;2023-02-26T13:03:04;14.63;;;3.50;;
11344;SDS011;5727;42.600;23.028;2023-02-26T13:06:05;12.97;;;4.70;;
11344;SDS011;5727;42.600;23.028;2023-02-26T13:08:44;10.43;;;3.90;;
11344;SDS011;5727;42.600;23.028;2023-02-26T13:11:22;17.47;;;4.57;;
11344;SDS011;5727;42.600;23.028;2023-02-26T13:14:04;10.73;;;3.50;;
11344;SDS011;5727;42.600;23.028;2023-02-26T13:16:45;10.17;;;3.30;;
11344;SDS011;5727;42.600;23.028;2023-02-26T13:19:20;15.67;;;4.33;;
11344;SDS011;5727;42.600;23.028;2023-02-26T13:21:56;16.77;;;3.97;;
11344;SDS011;5727;42.600;23.028;2023-02-26T13:24:27;12.43;;;3.80;;
11344;SDS011;5727;42.600;23.028;2023-02-26T13:27:01;11.37;;;3.47;;
11344;SDS011;5727;42.600;23.028;2023-02-26T13:29:32;13.97;;;3.57;;
11344;SDS011;5727;42.600;23.028;2023-02-26T13:32:04;16.93;;;4.10;;
11344;SDS011;5727;42.600;23.028;2023-02-26T13:34:39;14.10;;;3.80;;
11344;SDS011;5727;42.600;23.028;2023-02-26T13:37:13;10.00;;;3.47;;
11344;SDS011;5727;42.600;23.028;2023-02-26T13:39:48;11.73;;;3.57;;
11344;SDS011;5727;42.600;23.028;2023-02-26T13:42:27;13.50;;;3.27;;
11344;SDS011;5727;42.600;23.028;2023-02-26T13:45:02;10.70;;;3.37;;
11344;SDS011;5727;42.600;23.028;2023-02-26T13:47:50;11.90;;;3.47;;
11344;SDS011;5727;42.600;23.028;2023-02-26T13:50:29;14.57;;;3.60;;
11344;SDS011;5727;42.600;23.028;2023-02-26T13:56:05;8.40;;;3.47;;
11344;SDS011;5727;42.600;23.028;2023-02-26T13:58:36;12.23;;;3.57;;
11344;SDS011;5727;42.600;23.028;2023-02-26T14:01:08;8.13;;;2.67;;
11344;SDS011;5727;42.600;23.028;2023-02-26T14:03:40;11.47;;;3.07;;
11344;SDS011;5727;42.600;23.028;2023-02-26T14:09:05;7.57;;;3.30;;
11344;SDS011;5727;42.600;23.028;2023-02-26T14:12:03;14.90;;;3.37;;
11344;SDS011;5727;42.600;23.028;2023-02-26T14:18:01;9.37;;;3.53;;
11344;SDS011;5727;42.600;23.028;2023-02-26T14:20:31;10.30;;;3.10;;
11344;SDS011;5727;42.600;23.028;2023-02-26T14:23:10;8.80;;;3.40;;
11344;SDS011;5727;42.600;23.028;2023-02-26T14:25:45;13.37;;;3.80;;
11344;SDS011;5727;42.600;23.028;2023-02-26T14:28:18;10.53;;;3.43;;
11344;SDS011;5727;42.600;23.028;2023-02-26T14:31:07;12.90;;;3.80;;
11344;SDS011;5727;42.600;23.028;2023-02-26T14:33:41;7.40;;;3.63;;
11344;SDS011;5727;42.600;23.028;2023-02-26T14:36:14;11.73;;;3.20;;
11344;SDS011;5727;42.600;23.028;2023-02-26T14:38:46;9.33;;;3.40;;
11344;SDS011;5727;42.600;23.028;2023-02-26T14:41:20;8.13;;;3.43;;
11344;SDS011;5727;42.600;23.028;2023-02-26T14:43:56;11.67;;;3.70;;
11344;SDS011;5727;42.600;23.028;2023-02-26T14:46:26;10.93;;;3.83;;
11344;SDS011;5727;42.600;23.028;2023-02-26T14:48:55;8.63;;;3.50;;
11344;SDS011;5727;42.600;23.028;2023-02-26T14:51:23;10.53;;;3.57;;
11344;SDS011;5727;42.600;23.028;2023-02-26T14:54:13;12.57;;;3.23;;
11344;SDS011;5727;42.600;23.028;2023-02-26T14:56:53;9.90;;;3.33;;
11344;SDS011;5727;42.600;23.028;2023-02-26T14:59:40;10.77;;;3.60;;
11344;SDS011;5727;42.600;23.028;2023-02-26T15:02:40;11.50;;;3.47;;
11344;SDS011;5727;42.600;23.028;2023-02-26T15:05:24;7.70;;;2.73;;
11344;SDS011;5727;42.600;23.028;2023-02-26T15:08:13;13.57;;;3.70;;
11344;SDS011;5727;42.600;23.028;2023-02-26T15:10:57;10.20;;;3.80;;
11344;SDS011;5727;42.600;23.028;2023-02-26T15:13:41;9.70;;;3.63;;
11344;SDS011;5727;42.600;23.028;2023-02-26T15:16:37;11.03;;;4.00;;
11344;SDS011;5727;42.600;23.028;2023-02-26T15:19:19;6.50;;;3.53;;
11344;SDS011;5727;42.600;23.028;2023-02-26T15:22:07;11.17;;;3.60;;
11344;SDS011;5727;42.600;23.028;2023-02-26T15:24:43;10.63;;;3.37;;
11344;SDS011;5727;42.600;23.028;2023-02-26T15:27:14;7.17;;;3.20;;
11344;SDS011;5727;42.600;23.028;2023-02-26T15:29:43;11.03;;;3.67;;